createdAt,value
2018-02-14T00:00:44.426Z,50.60
2018-02-14T00:03:12.878Z,50.70
2018-02-14T00:05:40.493Z,50.90
2018-02-14T00:08:09.967Z,51.00
2018-02-14T00:10:38.455Z,51.10
2018-02-14T00:13:09.395Z,51.00
2018-02-14T00:15:41.637Z,51.20
2018-02-14T00:18:11.004Z,51.10
2018-02-14T00:20:38.903Z,51.20
2018-02-14T00:23:06.472Z,51.70
2018-02-14T00:25:34.103Z,51.10
2018-02-14T00:28:02.433Z,51.20
2018-02-14T00:30:30.017Z,51.10
2018-02-14T00:32:57.647Z,51.10
2018-02-14T00:35:26.001Z,51.20
2018-02-14T00:37:53.578Z,51.20
2018-02-14T00:40:22.092Z,51.20
2018-02-14T00:42:49.701Z,51.10
2018-02-14T00:45:17.389Z,50.90
2018-02-14T00:47:44.962Z,51.10
2018-02-14T00:50:12.529Z,51.30
2018-02-14T00:52:41.114Z,51.40
2018-02-14T00:55:11.799Z,51.70
2018-02-14T00:57:39.989Z,51.60
2018-02-14T01:00:08.850Z,51.70
2018-02-14T01:02:37.927Z,51.80
2018-02-14T01:05:06.926Z,51.70
2018-02-14T01:07:37.159Z,51.80
2018-02-14T01:10:09.682Z,51.70
2018-02-14T01:12:38.978Z,51.80
2018-02-14T01:15:10.616Z,51.70
2018-02-14T01:17:41.214Z,51.70
2018-02-14T01:20:11.462Z,51.60
2018-02-14T01:22:40.927Z,51.60
2018-02-14T01:25:09.844Z,51.60
2018-02-14T01:27:38.217Z,51.50
2018-02-14T01:30:09.594Z,52.10
2018-02-14T01:32:38.164Z,51.60
2018-02-14T01:35:06.213Z,51.60
2018-02-14T01:37:35.875Z,51.50
2018-02-14T01:40:04.841Z,51.50
2018-02-14T01:42:35.741Z,51.50
2018-02-14T01:45:04.620Z,51.40
2018-02-14T01:47:33.468Z,51.40
2018-02-14T01:50:01.446Z,51.40
2018-02-14T01:52:30.054Z,51.50
2018-02-14T01:54:59.770Z,51.40
2018-02-14T01:57:27.958Z,51.50
2018-02-14T01:59:56.107Z,51.40
2018-02-14T02:02:24.011Z,51.40
2018-02-14T02:04:52.170Z,51.50
2018-02-14T02:07:21.049Z,51.50
2018-02-14T02:09:50.169Z,51.50
2018-02-14T02:12:18.301Z,51.40
2018-02-14T02:14:46.253Z,51.40
2018-02-14T02:17:15.137Z,51.40
2018-02-14T02:19:43.723Z,51.50
2018-02-14T02:22:12.775Z,51.50
2018-02-14T02:24:40.797Z,51.40
2018-02-14T02:27:09.532Z,51.40
2018-02-14T02:29:39.089Z,51.90
2018-02-14T02:32:07.207Z,51.30
2018-02-14T02:34:36.012Z,51.30
2018-02-14T02:37:03.947Z,51.90
2018-02-14T02:39:43.770Z,51.40
2018-02-14T02:42:11.872Z,51.40
2018-02-14T02:44:39.985Z,51.40
2018-02-14T02:47:09.243Z,51.50
2018-02-14T02:49:37.289Z,51.40
2018-02-14T02:52:05.957Z,51.40
2018-02-14T02:54:35.499Z,51.40
2018-02-14T02:57:03.889Z,51.50
2018-02-14T02:59:31.894Z,51.50
2018-02-14T03:01:59.879Z,51.40
2018-02-14T03:04:27.912Z,51.50
2018-02-14T03:06:56.001Z,51.50
2018-02-14T03:09:24.038Z,51.50
2018-02-14T03:11:51.988Z,51.70
2018-02-14T03:14:21.460Z,51.80
2018-02-14T03:16:49.508Z,51.70
2018-02-14T03:19:18.278Z,51.80
2018-02-14T03:21:47.805Z,51.80
2018-02-14T03:24:16.591Z,51.90
2018-02-14T03:26:44.543Z,51.90
2018-02-14T03:29:13.068Z,51.70
2018-02-14T03:31:41.826Z,51.60
2018-02-14T03:34:10.634Z,51.50
2018-02-14T03:36:40.883Z,51.50
2018-02-14T03:41:43.206Z,51.40
2018-02-14T03:44:11.195Z,51.40
2018-02-14T03:46:41.299Z,51.40
2018-02-14T03:49:09.252Z,51.50
2018-02-14T03:51:37.920Z,51.70
2018-02-14T03:54:07.231Z,51.80
2018-02-14T03:56:35.233Z,51.70
2018-02-14T03:59:03.251Z,52.20
2018-02-14T04:01:31.225Z,51.80
2018-02-14T04:03:59.218Z,51.90
2018-02-14T04:06:27.428Z,51.90
2018-02-14T04:08:56.857Z,51.90
2018-02-14T04:11:26.803Z,51.90
2018-02-14T04:13:55.919Z,52.40
2018-02-14T04:16:23.919Z,51.80
2018-02-14T04:18:51.891Z,52.50
2018-02-14T04:21:20.914Z,51.90
2018-02-14T04:23:48.906Z,52.00
2018-02-14T04:26:17.230Z,52.10
2018-02-14T04:28:46.338Z,52.10
2018-02-14T04:31:15.354Z,52.00
2018-02-14T04:33:43.629Z,52.00
2018-02-14T04:36:12.022Z,52.00
2018-02-14T04:38:40.213Z,52.00
2018-02-14T04:41:09.388Z,52.10
2018-02-14T04:43:37.607Z,52.00
2018-02-14T04:46:05.893Z,52.10
2018-02-14T04:48:34.694Z,52.10
2018-02-14T04:51:03.088Z,52.10
2018-02-14T04:53:31.271Z,52.10
2018-02-14T04:56:00.121Z,52.00
2018-02-14T04:58:28.348Z,52.00
2018-02-14T05:00:56.752Z,52.10
2018-02-14T05:03:25.175Z,52.10
2018-02-14T05:05:55.509Z,51.80
2018-02-14T05:08:23.794Z,52.10
2018-02-14T05:10:52.231Z,52.20
2018-02-14T05:13:21.938Z,52.30
2018-02-14T05:15:50.927Z,52.30
2018-02-14T05:18:19.260Z,52.30
2018-02-14T05:20:47.368Z,52.40
2018-02-14T05:23:16.504Z,52.30
2018-02-14T05:25:44.903Z,52.30
2018-02-14T05:28:14.735Z,52.90
2018-02-14T05:30:43.017Z,52.30
2018-02-14T05:33:11.373Z,52.40
2018-02-14T05:35:39.635Z,52.40
2018-02-14T05:38:08.558Z,52.50
2018-02-14T05:40:37.292Z,52.40
2018-02-14T05:43:05.851Z,52.10
2018-02-14T05:45:33.835Z,52.50
2018-02-14T05:48:04.254Z,52.70
2018-02-14T05:50:33.282Z,52.60
2018-02-14T05:53:03.211Z,53.20
2018-02-14T05:55:31.600Z,52.70
2018-02-14T05:57:59.784Z,52.70
2018-02-14T06:00:28.646Z,52.80
2018-02-14T06:02:56.884Z,53.10
2018-02-14T06:05:26.494Z,52.90
2018-02-14T06:07:54.991Z,53.00
2018-02-14T06:10:23.995Z,52.90
2018-02-14T06:12:52.182Z,52.80
2018-02-14T06:15:20.572Z,52.70
2018-02-14T06:17:49.721Z,52.80
2018-02-14T06:20:18.394Z,53.30
2018-02-14T06:22:47.796Z,52.80
2018-02-14T06:25:16.900Z,52.70
2018-02-14T06:27:46.623Z,53.20
2018-02-14T06:30:16.063Z,53.20
2018-02-14T06:32:44.037Z,52.70
2018-02-14T06:35:14.079Z,53.00
2018-02-14T06:37:43.360Z,53.00
2018-02-14T06:40:11.752Z,53.00
2018-02-14T06:42:41.063Z,53.10
2018-02-14T06:45:09.726Z,53.00
2018-02-14T06:47:38.137Z,53.20
2018-02-14T06:50:06.349Z,53.30
2018-02-14T06:52:35.143Z,53.50
2018-02-14T06:55:05.636Z,53.50
2018-02-14T06:57:33.715Z,53.50
2018-02-14T07:00:02.147Z,53.50
2018-02-14T07:02:31.510Z,53.60
2018-02-14T07:04:59.680Z,53.50
2018-02-14T07:07:28.910Z,53.60
2018-02-14T07:09:58.842Z,53.60
2018-02-14T07:12:28.050Z,53.30
2018-02-14T07:14:56.205Z,52.90
2018-02-14T07:17:25.576Z,53.00
2018-02-14T07:19:54.231Z,52.90
2018-02-14T07:22:22.747Z,53.00
2018-02-14T07:24:50.651Z,53.20
2018-02-14T07:27:18.882Z,53.20
2018-02-14T07:29:47.792Z,53.00
2018-02-14T07:32:15.949Z,53.00
2018-02-14T07:34:43.839Z,52.90
2018-02-14T07:37:12.190Z,52.90
2018-02-14T07:39:40.960Z,53.00
2018-02-14T07:42:09.635Z,53.00
2018-02-14T07:44:38.473Z,53.20
2018-02-14T07:47:07.487Z,53.10
2018-02-14T07:49:35.509Z,53.50
2018-02-14T07:52:04.596Z,53.30
2018-02-14T07:54:33.484Z,53.40
2018-02-14T07:57:02.149Z,53.50
2018-02-14T07:59:30.817Z,53.50
2018-02-14T08:02:00.136Z,53.40
2018-02-14T08:04:29.336Z,53.40
2018-02-14T08:06:58.436Z,53.40
2018-02-14T08:09:26.710Z,53.70
2018-02-14T08:11:56.225Z,53.30
2018-02-14T08:14:25.160Z,53.30
2018-02-14T08:16:54.091Z,53.40
2018-02-14T08:19:22.353Z,53.40
2018-02-14T08:21:50.761Z,53.40
2018-02-14T08:24:19.133Z,53.30
2018-02-14T08:26:47.932Z,53.20
2018-02-14T08:29:16.031Z,53.10
2018-02-14T08:31:44.122Z,53.30
2018-02-14T08:34:12.722Z,53.20
2018-02-14T08:36:41.703Z,53.40
2018-02-14T08:39:09.791Z,53.60
2018-02-14T08:41:39.756Z,53.70
2018-02-14T08:44:08.031Z,53.60
2018-02-14T08:46:37.008Z,53.50
2018-02-14T08:50:11.961Z,53.40
2018-02-14T08:52:43.944Z,53.30
2018-02-14T08:55:13.052Z,53.20
2018-02-14T08:57:42.161Z,53.10
2018-02-14T09:00:12.299Z,53.20
2018-02-14T09:02:43.312Z,53.00
2018-02-14T09:05:13.123Z,52.80
2018-02-14T09:07:41.352Z,52.60
2018-02-14T09:10:09.626Z,52.70
2018-02-14T09:12:45.428Z,52.80
2018-02-14T09:15:13.713Z,52.80
2018-02-14T09:17:41.925Z,52.90
2018-02-14T09:20:12.474Z,52.60
2018-02-14T09:22:43.747Z,52.60
2018-02-14T09:25:13.464Z,52.50
2018-02-14T09:27:42.459Z,52.40
2018-02-14T09:30:12.278Z,52.20
2018-02-14T09:32:40.451Z,52.70
2018-02-14T09:35:10.060Z,52.00
2018-02-14T09:37:38.457Z,52.10
2018-02-14T09:40:08.080Z,51.90
2018-02-14T09:42:38.278Z,51.50
2018-02-14T09:45:06.498Z,51.40
2018-02-14T09:47:36.066Z,51.30
2018-02-14T09:50:07.181Z,51.10
2018-02-14T09:52:39.769Z,51.90
2018-02-14T09:55:09.348Z,51.10
2018-02-14T09:57:38.568Z,51.30
2018-02-14T10:00:08.374Z,51.40
2018-02-14T10:02:36.685Z,51.40
2018-02-14T10:05:04.754Z,51.20
2018-02-14T10:07:32.345Z,50.90
2018-02-14T10:10:01.441Z,50.80
2018-02-14T10:12:29.923Z,50.70
2018-02-14T10:14:58.352Z,50.50
2018-02-14T10:17:26.725Z,50.60
2018-02-14T10:19:54.348Z,50.50
2018-02-14T10:22:21.987Z,50.40
2018-02-14T10:24:50.341Z,50.30
2018-02-14T10:27:19.508Z,50.00
2018-02-14T10:29:47.094Z,50.20
2018-02-14T10:32:14.736Z,50.10
2018-02-14T10:34:42.296Z,49.90
2018-02-14T10:37:10.637Z,49.90
2018-02-14T10:39:38.541Z,49.70
2018-02-14T10:42:07.068Z,50.10
2018-02-14T10:44:35.404Z,49.30
2018-02-14T10:47:03.377Z,49.20
2018-02-14T10:49:31.068Z,49.20
2018-02-14T10:51:58.685Z,48.90
2018-02-14T10:54:26.297Z,48.60
2018-02-14T10:56:54.734Z,48.40
2018-02-14T10:59:22.447Z,48.00
2018-02-14T11:01:55.649Z,47.70
2018-02-14T11:04:23.334Z,47.70
2018-02-14T11:06:50.947Z,47.50
2018-02-14T11:09:18.551Z,47.80
2018-02-14T11:11:46.184Z,47.40
2018-02-14T11:14:14.615Z,46.80
2018-02-14T11:16:43.022Z,46.30
2018-02-14T11:19:10.617Z,46.20
2018-02-14T11:21:38.261Z,46.00
2018-02-14T11:24:06.647Z,45.90
2018-02-14T11:26:34.315Z,45.10
2018-02-14T11:29:02.696Z,44.90
2018-02-14T11:31:31.869Z,44.70
2018-02-14T11:33:59.549Z,44.60
2018-02-14T11:36:27.125Z,44.40
2018-02-14T11:38:55.481Z,43.50
2018-02-14T11:41:23.074Z,43.50
2018-02-14T11:43:51.573Z,42.80
2018-02-14T11:46:19.172Z,42.60
2018-02-14T11:48:46.751Z,42.50
2018-02-14T11:51:14.396Z,42.60
2018-02-14T11:53:42.737Z,41.90
2018-02-14T11:56:11.070Z,41.70
2018-02-14T11:58:39.588Z,42.10
2018-02-14T12:01:07.254Z,42.00
2018-02-14T12:03:34.958Z,41.90
2018-02-14T12:06:02.552Z,41.80
2018-02-14T12:08:30.115Z,41.70
2018-02-14T12:10:57.714Z,41.60
2018-02-14T12:13:25.278Z,41.20
2018-02-14T12:15:53.423Z,40.80
2018-02-14T12:18:21.253Z,41.40
2018-02-14T12:20:49.603Z,42.20
2018-02-14T12:23:17.195Z,41.60
2018-02-14T12:25:45.366Z,41.60
2018-02-14T12:28:12.989Z,41.50
2018-02-14T12:30:41.326Z,41.70
2018-02-14T12:33:08.907Z,41.70
2018-02-14T12:35:36.496Z,41.20
2018-02-14T12:38:04.142Z,41.30
2018-02-14T12:40:31.831Z,41.50
2018-02-14T12:42:59.438Z,41.40
2018-02-14T12:45:27.925Z,41.80
2018-02-14T12:47:56.116Z,41.60
2018-02-14T12:50:24.496Z,41.60
2018-02-14T12:52:52.147Z,41.50
2018-02-14T12:55:19.863Z,41.70
2018-02-14T12:57:48.291Z,41.40
2018-02-14T13:00:16.039Z,41.30
2018-02-14T13:02:43.738Z,41.20
2018-02-14T13:05:11.502Z,41.10
2018-02-14T13:07:39.183Z,41.20
2018-02-14T13:10:07.425Z,41.20
2018-02-14T13:12:35.765Z,41.10
2018-02-14T13:15:03.990Z,41.10
2018-02-14T13:17:32.551Z,40.90
2018-02-14T13:20:00.213Z,41.00
2018-02-14T13:22:27.834Z,41.00
2018-02-14T13:24:55.451Z,40.60
2018-02-14T13:27:23.115Z,40.50
2018-02-14T13:29:51.553Z,39.70
2018-02-14T13:32:19.980Z,39.80
2018-02-14T13:34:47.594Z,39.60
2018-02-14T13:37:15.271Z,39.30
2018-02-14T13:39:42.860Z,38.90
2018-02-14T13:42:10.583Z,38.80
2018-02-14T13:44:39.448Z,38.80
2018-02-14T13:47:07.463Z,38.70
2018-02-14T13:49:35.182Z,38.80
2018-02-14T13:52:02.819Z,38.60
2018-02-14T13:54:32.121Z,38.20
2018-02-14T13:56:59.854Z,38.10
2018-02-14T13:59:27.508Z,38.10
2018-02-14T14:01:55.193Z,38.00
2018-02-14T14:04:22.864Z,38.00
2018-02-14T14:06:50.500Z,38.00
2018-02-14T14:09:18.212Z,38.00
2018-02-14T14:11:45.930Z,38.00
2018-02-14T14:14:13.518Z,37.80
2018-02-14T14:16:41.876Z,38.20
2018-02-14T14:19:09.441Z,38.20
2018-02-14T14:21:38.905Z,38.00
2018-02-14T14:24:06.521Z,37.30
2018-02-14T14:26:34.305Z,37.50
2018-02-14T14:29:01.874Z,37.20
2018-02-14T14:31:29.442Z,37.20
2018-02-14T14:33:57.055Z,37.20
2018-02-14T14:36:24.615Z,37.20
2018-02-14T14:38:52.264Z,37.20
2018-02-14T14:41:20.571Z,36.90
2018-02-14T14:43:48.277Z,36.80
2018-02-14T14:46:16.524Z,37.40
2018-02-14T14:48:44.176Z,37.60
2018-02-14T14:51:12.585Z,36.70
2018-02-14T14:53:40.201Z,37.00
2018-02-14T14:56:08.623Z,37.20
2018-02-14T14:58:36.226Z,37.10
2018-02-14T15:01:03.873Z,37.10
2018-02-14T15:03:31.506Z,36.70
2018-02-14T15:05:59.167Z,36.30
2018-02-14T15:08:26.836Z,36.50
2018-02-14T15:10:54.407Z,36.30
2018-02-14T15:13:22.140Z,36.20
2018-02-14T15:15:52.294Z,36.80
2018-02-14T15:18:20.114Z,36.70
2018-02-14T15:20:47.815Z,36.80
2018-02-14T15:23:16.274Z,37.00
2018-02-14T15:25:43.963Z,36.90
2018-02-14T15:28:11.610Z,37.00
2018-02-14T15:30:40.108Z,36.70
2018-02-14T15:33:07.795Z,36.80
2018-02-14T15:35:35.498Z,36.60
2018-02-14T15:38:03.890Z,36.60
2018-02-14T15:40:32.835Z,36.80
2018-02-14T15:43:00.502Z,36.70
2018-02-14T15:45:29.150Z,36.60
2018-02-14T15:47:58.443Z,36.50
2018-02-14T15:50:26.088Z,36.40
2018-02-14T15:52:55.476Z,36.40
2018-02-14T15:55:23.997Z,36.20
2018-02-14T15:57:52.162Z,36.30
2018-02-14T16:00:19.867Z,36.40
2018-02-14T16:02:47.791Z,36.60
2018-02-14T16:05:15.473Z,36.40
2018-02-14T16:07:44.267Z,36.30
2018-02-14T16:10:11.924Z,36.50
2018-02-14T16:12:40.081Z,36.60
2018-02-14T16:15:07.761Z,36.70
2018-02-14T16:17:35.487Z,36.70
2018-02-14T16:20:04.586Z,37.00
2018-02-14T16:22:32.281Z,37.00
2018-02-14T16:25:00.702Z,37.30
2018-02-14T16:27:28.294Z,37.20
2018-02-14T16:29:55.958Z,37.40
2018-02-14T16:32:23.654Z,37.40
2018-02-14T16:34:52.243Z,37.50
2018-02-14T16:37:19.879Z,37.50
2018-02-14T16:39:47.506Z,37.80
2018-02-14T16:42:15.902Z,37.80
2018-02-14T16:44:43.642Z,38.00
2018-02-14T16:47:11.267Z,37.90
2018-02-14T16:49:39.692Z,38.20
2018-02-14T16:52:07.271Z,38.20
2018-02-14T16:54:34.937Z,38.40
2018-02-14T16:57:03.503Z,38.50
2018-02-14T16:59:31.794Z,38.50
2018-02-14T17:02:00.688Z,38.50
2018-02-14T17:04:29.271Z,38.70
2018-02-14T17:06:57.535Z,38.70
2018-02-14T17:09:25.750Z,38.80
2018-02-14T17:11:53.928Z,38.80
2018-02-14T17:14:22.836Z,38.90
2018-02-14T17:16:51.778Z,39.10
2018-02-14T17:19:20.194Z,39.10
2018-02-14T17:21:48.383Z,39.20
2018-02-14T17:24:16.649Z,39.10
2018-02-14T17:26:44.543Z,39.30
2018-02-14T17:29:12.970Z,39.10
2018-02-14T17:31:42.627Z,39.00
2018-02-14T17:34:10.327Z,39.20
2018-02-14T17:36:40.325Z,39.10
2018-02-14T17:39:08.437Z,39.00
2018-02-14T17:41:36.559Z,39.20
2018-02-14T17:44:05.845Z,39.30
2018-02-14T17:46:33.902Z,39.30
2018-02-14T17:49:03.178Z,39.40
2018-02-14T17:51:32.076Z,39.40
2018-02-14T17:54:00.367Z,39.60
2018-02-14T17:56:28.282Z,39.60
2018-02-14T17:58:56.817Z,39.60
2018-02-14T18:01:25.197Z,39.80
2018-02-14T18:03:53.346Z,39.70
2018-02-14T18:06:21.646Z,39.90
2018-02-14T18:08:50.620Z,40.00
2018-02-14T18:11:19.213Z,40.10
2018-02-14T18:13:48.280Z,40.10
2018-02-14T18:16:16.221Z,40.00
2018-02-14T18:18:44.332Z,40.00
2018-02-14T18:21:13.132Z,40.20
2018-02-14T18:23:44.477Z,40.30
2018-02-14T18:26:12.930Z,40.60
2018-02-14T18:28:41.282Z,40.10
2018-02-14T18:31:08.924Z,40.50
2018-02-14T18:33:36.713Z,40.70
2018-02-14T18:36:04.338Z,40.70
2018-02-14T18:38:33.543Z,40.70
2018-02-14T18:41:01.768Z,40.70
2018-02-14T18:43:30.044Z,40.70
2018-02-14T18:46:00.027Z,40.80
2018-02-14T18:48:28.017Z,40.70
2018-02-14T18:50:56.530Z,40.80
2018-02-14T18:53:25.263Z,41.00
2018-02-14T18:55:54.246Z,41.30
2018-02-14T18:58:23.883Z,41.30
2018-02-14T19:00:53.003Z,41.10
2018-02-14T19:03:23.582Z,41.20
2018-02-14T19:05:51.300Z,41.30
2018-02-14T19:08:20.667Z,41.40
2018-02-14T19:10:48.844Z,41.60
2018-02-14T19:13:17.236Z,41.70
2018-02-14T19:15:45.548Z,41.70
2018-02-14T19:18:13.130Z,41.90
2018-02-14T19:20:41.371Z,41.90
2018-02-14T19:23:10.928Z,42.20
2018-02-14T19:25:38.593Z,42.10
2018-02-14T19:28:07.454Z,42.10
2018-02-14T19:30:35.115Z,42.70
2018-02-14T19:33:03.945Z,42.50
2018-02-14T19:35:34.177Z,42.50
2018-02-14T19:38:01.846Z,42.60
2018-02-14T19:40:31.128Z,42.60
2018-02-14T19:42:59.582Z,42.70
2018-02-14T19:45:28.115Z,43.00
2018-02-14T19:47:57.912Z,43.00
2018-02-14T19:50:25.583Z,42.90
2018-02-14T19:52:54.474Z,42.90
2018-02-14T19:55:24.267Z,42.90
2018-02-14T19:57:52.103Z,43.20
2018-02-14T20:00:19.750Z,43.20
2018-02-14T20:02:47.361Z,43.70
2018-02-14T20:05:16.638Z,43.20
2018-02-14T20:07:44.645Z,43.10
2018-02-14T20:10:12.502Z,43.10
2018-02-14T20:12:40.336Z,43.20
2018-02-14T20:15:10.373Z,43.00
2018-02-14T20:17:38.778Z,43.00
2018-02-14T20:20:07.134Z,43.30
2018-02-14T20:22:35.032Z,43.10
2018-02-14T20:25:02.688Z,43.20
2018-02-14T20:27:30.263Z,43.30
2018-02-14T20:29:57.840Z,43.30
2018-02-14T20:32:25.434Z,43.20
2018-02-14T20:34:53.824Z,43.20
2018-02-14T20:37:21.435Z,43.10
2018-02-14T20:39:49.058Z,43.30
2018-02-14T20:42:16.897Z,43.10
2018-02-14T20:44:44.523Z,43.10
2018-02-14T20:47:12.929Z,43.40
2018-02-14T20:49:40.546Z,43.30
2018-02-14T20:52:08.166Z,43.40
2018-02-14T20:54:36.650Z,43.30
2018-02-14T20:57:05.190Z,43.30
2018-02-14T20:59:33.005Z,43.30
2018-02-14T21:02:01.489Z,43.80
2018-02-14T21:04:29.311Z,43.40
2018-02-14T21:06:57.155Z,43.50
2018-02-14T21:09:24.770Z,43.40
2018-02-14T21:11:53.153Z,43.40
2018-02-14T21:14:21.492Z,43.50
2018-02-14T21:16:49.116Z,43.40
2018-02-14T21:19:17.493Z,43.60
2018-02-14T21:21:45.835Z,43.70
2018-02-14T21:24:13.443Z,43.50
2018-02-14T21:26:41.035Z,43.60
2018-02-14T21:29:08.648Z,43.70
2018-02-14T21:31:37.886Z,44.20
2018-02-14T21:34:07.411Z,43.70
2018-02-14T21:36:37.315Z,43.90
2018-02-14T21:39:05.712Z,44.00
2018-02-14T21:41:33.325Z,43.80
2018-02-14T21:44:01.695Z,44.00
2018-02-14T21:46:29.258Z,44.00
2018-02-14T21:48:56.824Z,44.00
2018-02-14T21:51:26.006Z,44.10
2018-02-14T21:53:54.579Z,44.00
2018-02-14T21:56:24.138Z,44.10
2018-02-14T21:58:52.229Z,44.20
2018-02-14T22:01:19.880Z,44.20
2018-02-14T22:03:47.496Z,44.10
2018-02-14T22:06:15.072Z,44.20
2018-02-14T22:08:42.999Z,44.30
2018-02-14T22:11:10.629Z,44.40
2018-02-14T22:13:38.834Z,44.40
2018-02-14T22:16:07.196Z,44.60
2018-02-14T22:18:34.764Z,44.50
2018-02-14T22:21:02.333Z,44.70
2018-02-14T22:23:31.097Z,44.70
2018-02-14T22:25:58.739Z,44.70
2018-02-14T22:28:27.078Z,44.80
2018-02-14T22:30:54.691Z,44.70
2018-02-14T22:33:22.263Z,44.80
2018-02-14T22:35:49.848Z,44.80
2018-02-14T22:38:21.311Z,44.90
2018-02-14T22:40:49.635Z,44.90
2018-02-14T22:43:17.214Z,45.00
2018-02-14T22:45:44.838Z,44.90
2018-02-14T22:48:13.257Z,44.90
2018-02-14T22:50:42.686Z,45.00
2018-02-14T22:53:11.786Z,45.00
2018-02-14T22:55:40.873Z,45.00
2018-02-14T22:58:09.239Z,45.00
2018-02-14T23:00:37.478Z,45.00
2018-02-14T23:03:05.782Z,45.00
2018-02-14T23:05:34.027Z,45.10
2018-02-14T23:08:03.162Z,45.10
2018-02-14T23:10:31.209Z,45.00
2018-02-14T23:13:00.750Z,45.10
2018-02-14T23:15:28.887Z,45.00
2018-02-14T23:17:58.497Z,45.10
2018-02-14T23:20:27.364Z,45.00
2018-02-14T23:22:55.799Z,44.90
2018-02-14T23:25:23.931Z,45.00
2018-02-14T23:27:53.273Z,45.50
2018-02-14T23:30:26.677Z,45.10
2018-02-14T23:32:55.074Z,45.00
2018-02-14T23:35:23.229Z,45.00
2018-02-14T23:37:51.454Z,45.10
2018-02-14T23:40:19.517Z,45.10
2018-02-14T23:42:49.740Z,45.10
2018-02-14T23:45:17.828Z,45.10
2018-02-14T23:47:47.603Z,45.10
2018-02-14T23:50:16.546Z,45.10
2018-02-14T23:52:45.590Z,45.10
2018-02-14T23:55:13.830Z,45.10
2018-02-14T23:57:42.305Z,45.10
